Time;durP1;ratioP1;P1;durP2;ratioP2;P2;SDS_P1;SDS_P2;PMS_P1;PMS_P2;Temp;Humidity;BMP_temperature;BMP_pressure;BME280_temperature;BME280_humidity;BME280_pressure;Samples;Min_cycle;Max_cycle;Signal;HPM_P1;HPM_P2
2021/06/21 00:00:37;;;;;;;1.52;0.50;;;;;;;-148.58;100.00;55229.56;5035196;28;20377;-60
2021/06/21 00:03:03;;;;;;;0.63;0.50;;;;;;;-148.58;100.00;55229.56;5035067;28;20045;-60
2021/06/21 00:05:28;;;;;;;0.95;0.50;;;;;;;-148.58;100.00;55229.56;5033652;28;20029;-62
2021/06/21 00:07:53;;;;;;;0.50;0.40;;;;;;;-148.58;100.00;55229.56;5033597;28;20021;-61
2021/06/21 00:10:19;;;;;;;1.38;0.40;;;;;;;-148.58;100.00;55229.56;5035065;28;20559;-60
2021/06/21 00:12:46;;;;;;;1.35;0.50;;;;;;;-148.58;100.00;55229.56;5034991;28;20037;-61
2021/06/21 00:15:16;;;;;;;0.50;0.50;;;;;;;-148.58;100.00;55229.56;5035050;28;20104;-61
2021/06/21 00:17:42;;;;;;;0.88;0.40;;;;;;;-148.58;100.00;55229.56;5034989;28;20121;-60
2021/06/21 00:20:07;;;;;;;1.55;0.55;;;;;;;-148.58;100.00;55229.56;5034901;28;20473;-61
2021/06/21 00:22:33;;;;;;;0.50;0.50;;;;;;;-148.58;100.00;55229.56;5034848;28;20377;-60
2021/06/21 00:24:58;;;;;;;0.55;0.40;;;;;;;-148.58;100.00;55229.56;5034707;28;20507;-60
2021/06/21 00:27:26;;;;;;;1.05;0.47;;;;;;;-148.58;100.00;55229.56;5034833;28;20473;-61
2021/06/21 00:29:52;;;;;;;0.73;0.47;;;;;;;-148.58;100.00;55229.56;5034643;28;20021;-61
2021/06/21 00:32:19;;;;;;;0.50;0.45;;;;;;;-148.58;100.00;55229.56;5034476;28;20396;-61
2021/06/21 00:34:44;;;;;;;0.90;0.70;;;;;;;-148.58;100.00;55229.56;5033646;28;20449;-61
2021/06/21 00:37:10;;;;;;;0.40;0.40;;;;;;;-148.58;100.00;55229.56;5050223;28;20056;-60
2021/06/21 00:39:35;;;;;;;0.88;0.50;;;;;;;-148.58;100.00;55229.56;5034615;28;20057;-61
2021/06/21 00:42:01;;;;;;;0.93;0.63;;;;;;;-148.58;100.00;55229.56;5034364;28;20062;-61
2021/06/21 00:44:26;;;;;;;0.77;0.63;;;;;;;-148.58;100.00;55229.56;5034368;28;20026;-60
2021/06/21 00:46:51;;;;;;;0.65;0.35;;;;;;;-148.58;100.00;55229.56;5034342;28;20031;-60
2021/06/21 00:49:16;;;;;;;1.00;0.50;;;;;;;-148.58;100.00;55229.56;5034410;28;20460;-60
2021/06/21 00:51:42;;;;;;;2.13;0.40;;;;;;;-148.58;100.00;55229.56;5034277;28;20017;-61
2021/06/21 00:54:08;;;;;;;1.05;0.50;;;;;;;-148.58;100.00;55229.56;5034184;28;20268;-60
2021/06/21 00:56:33;;;;;;;0.73;0.47;;;;;;;-148.58;100.00;55229.56;5034737;28;20020;-60
2021/06/21 00:59:00;;;;;;;1.17;0.52;;;;;;;-148.58;100.00;55229.56;5034170;28;20024;-61
2021/06/21 01:01:26;;;;;;;0.65;0.45;;;;;;;-148.58;100.00;55229.56;5032981;28;20033;-60
2021/06/21 01:03:52;;;;;;;1.00;0.57;;;;;;;-148.58;100.00;55229.56;5033625;28;20084;-61
2021/06/21 01:06:17;;;;;;;1.88;0.60;;;;;;;-148.58;100.00;55229.56;5034205;28;20112;-61
2021/06/21 01:08:42;;;;;;;1.38;0.50;;;;;;;-148.58;100.00;55229.56;5033372;28;20022;-61
2021/06/21 01:11:08;;;;;;;0.55;0.50;;;;;;;-148.58;100.00;55229.56;5033965;28;20045;-61
2021/06/21 01:14:18;;;;;;;0.45;0.40;;;;;;;-148.58;100.00;55229.56;5033486;28;20029;-61
2021/06/21 01:17:10;;;;;;;1.05;0.50;;;;;;;-148.58;100.00;55229.56;4953599;28;20490;-60
2021/06/21 01:19:50;;;;;;;1.15;0.50;;;;;;;-148.58;100.00;55229.56;4953354;29;20546;-61
2021/06/21 01:22:43;;;;;;;0.50;0.47;;;;;;;-148.58;100.00;55229.56;4953511;29;20110;-61
2021/06/21 01:25:48;;;;;;;0.63;0.60;;;;;;;-148.58;100.00;55229.56;4953191;29;20031;-60
2021/06/21 01:28:28;;;;;;;1.63;0.60;;;;;;;-148.58;100.00;55229.56;4953288;29;20039;-61
2021/06/21 01:31:07;;;;;;;0.45;0.45;;;;;;;-148.58;100.00;55229.56;4952969;29;20035;-60
2021/06/21 01:33:34;;;;;;;1.02;0.43;;;;;;;-148.58;100.00;55229.56;4953214;29;20035;-60
2021/06/21 01:36:02;;;;;;;0.50;0.40;;;;;;;-148.58;100.00;55229.56;4952915;29;20031;-59
2021/06/21 01:38:34;;;;;;;0.70;0.40;;;;;;;-148.58;100.00;55229.56;4953153;29;20118;-61
2021/06/21 01:41:03;;;;;;;0.85;0.50;;;;;;;-148.58;100.00;55229.56;4952668;29;20545;-60
2021/06/21 01:43:44;;;;;;;1.85;0.77;;;;;;;-148.58;100.00;55229.56;4952964;29;20034;-61
2021/06/21 01:46:13;;;;;;;1.48;0.40;;;;;;;-148.58;100.00;55229.56;4952864;29;20048;-60
2021/06/21 01:48:44;;;;;;;0.70;0.47;;;;;;;-148.58;100.00;55229.56;4952767;29;20131;-60
2021/06/21 01:51:11;;;;;;;0.30;0.30;;;;;;;-148.58;100.00;55229.56;4952776;29;20027;-60
2021/06/21 01:53:38;;;;;;;1.02;0.52;;;;;;;-148.58;100.00;55229.56;5008744;28;20087;-60
2021/06/21 01:56:09;;;;;;;0.68;0.40;;;;;;;-148.58;100.00;55229.56;5033104;28;20150;-61
2021/06/21 01:58:37;;;;;;;0.50;0.35;;;;;;;-148.58;100.00;55229.56;5033097;28;20111;-60
2021/06/21 02:01:14;;;;;;;1.08;0.43;;;;;;;-148.58;100.00;55229.56;5033174;28;20021;-61
2021/06/21 02:03:43;;;;;;;0.82;0.50;;;;;;;-148.58;100.00;55229.56;5032823;28;20488;-60
2021/06/21 02:06:11;;;;;;;1.42;0.60;;;;;;;-148.58;100.00;55229.56;5032197;28;20034;-61
2021/06/21 02:08:37;;;;;;;0.70;0.45;;;;;;;-148.58;100.00;55229.56;5031975;28;20495;-60
2021/06/21 02:11:03;;;;;;;0.70;0.50;;;;;;;-148.58;100.00;55229.56;5033071;28;20253;-61
2021/06/21 02:13:32;;;;;;;0.63;0.52;;;;;;;-148.58;100.00;55229.56;5032995;28;20028;-61
2021/06/21 02:15:57;;;;;;;1.90;0.85;;;;;;;-148.58;100.00;55229.56;5032057;28;20108;-60
2021/06/21 02:18:23;;;;;;;1.08;0.68;;;;;;;-148.58;100.00;55229.56;5032841;28;20483;-60
2021/06/21 02:20:52;;;;;;;0.43;0.43;;;;;;;-148.58;100.00;55229.56;5032615;28;20029;-61
2021/06/21 02:23:20;;;;;;;1.02;0.47;;;;;;;-148.58;100.00;55229.56;5031559;28;20109;-60
2021/06/21 02:25:47;;;;;;;0.88;0.60;;;;;;;-148.58;100.00;55229.56;5032552;28;20032;-60
2021/06/21 02:28:16;;;;;;;1.33;0.68;;;;;;;-148.58;100.00;55229.56;5032649;28;20427;-60
2021/06/21 02:30:41;;;;;;;1.85;0.50;;;;;;;-148.58;100.00;55229.56;5032627;28;20022;-61
2021/06/21 02:33:06;;;;;;;0.75;0.45;;;;;;;-148.58;100.00;55229.56;5032573;28;20092;-61
2021/06/21 02:35:32;;;;;;;0.80;0.47;;;;;;;-148.58;100.00;55229.56;5032241;28;20100;-61
2021/06/21 02:37:57;;;;;;;0.50;0.50;;;;;;;-148.58;100.00;55229.56;5015360;28;20033;-60
2021/06/21 02:40:24;;;;;;;0.63;0.40;;;;;;;-148.58;100.00;55229.56;5031693;28;20025;-61
2021/06/21 02:42:49;;;;;;;0.52;0.40;;;;;;;-148.58;100.00;55229.56;5032377;28;20053;-60
2021/06/21 02:45:15;;;;;;;0.57;0.55;;;;;;;-148.58;100.00;55229.56;5032454;28;20511;-61
2021/06/21 02:47:42;;;;;;;0.73;0.40;;;;;;;-148.58;100.00;55229.56;5032515;28;20029;-61
2021/06/21 02:50:08;;;;;;;0.75;0.65;;;;;;;-148.58;100.00;55229.56;5032367;28;20026;-60
2021/06/21 02:52:51;;;;;;;1.13;0.55;;;;;;;-148.58;100.00;55229.56;5032592;28;20067;-60
2021/06/21 02:55:58;;;;;;;1.48;0.60;;;;;;;-148.58;100.00;55229.56;5032448;28;20067;-60
2021/06/21 02:58:31;;;;;;;0.88;0.50;;;;;;;-148.58;100.00;55229.56;5031901;28;20128;-60
2021/06/21 03:01:00;;;;;;;1.40;0.30;;;;;;;-148.58;100.00;55229.56;5032268;28;20025;-61
2021/06/21 03:03:32;;;;;;;0.50;0.38;;;;;;;-148.58;100.00;55229.56;5032444;28;20061;-59
2021/06/21 03:05:59;;;;;;;2.28;0.40;;;;;;;-148.58;100.00;55229.56;5032470;28;20433;-60
2021/06/21 03:08:28;;;;;;;0.47;0.30;;;;;;;-148.58;100.00;55229.56;5032525;28;20435;-59
2021/06/21 03:10:56;;;;;;;0.65;0.25;;;;;;;-148.58;100.00;55229.56;5032421;28;20415;-61
2021/06/21 03:13:21;;;;;;;0.55;0.40;;;;;;;-148.58;100.00;55229.56;5030929;28;20033;-60
2021/06/21 03:15:50;;;;;;;0.70;0.57;;;;;;;-148.58;100.00;55229.56;5031944;28;20018;-59
2021/06/21 03:18:19;;;;;;;0.30;0.30;;;;;;;-148.58;100.00;55229.56;5031168;28;20029;-60
2021/06/21 03:20:45;;;;;;;0.52;0.38;;;;;;;-148.58;100.00;55229.56;5030340;28;20037;-59
2021/06/21 03:23:10;;;;;;;0.73;0.30;;;;;;;-148.58;100.00;55229.56;5032349;28;20021;-60
2021/06/21 03:25:36;;;;;;;0.20;0.20;;;;;;;-148.58;100.00;55229.56;5032041;28;20072;-59
2021/06/21 03:28:12;;;;;;;0.63;0.55;;;;;;;-148.58;100.00;55229.56;5035534;28;20063;-60
2021/06/21 03:30:42;;;;;;;0.77;0.40;;;;;;;-148.58;100.00;55229.56;5034597;28;20013;-61
2021/06/21 03:33:07;;;;;;;1.45;0.40;;;;;;;-148.58;100.00;55229.56;5036880;28;20034;-61
2021/06/21 03:35:33;;;;;;;1.40;0.55;;;;;;;-148.58;100.00;55229.56;5034350;28;20105;-61
2021/06/21 03:38:18;;;;;;;0.85;0.20;;;;;;;-148.58;100.00;55229.56;5035580;28;20065;-60
2021/06/21 03:40:46;;;;;;;0.73;0.30;;;;;;;-148.58;100.00;55229.56;5035575;28;20380;-60
2021/06/21 03:43:13;;;;;;;1.02;0.45;;;;;;;-148.58;100.00;55229.56;5035653;28;20029;-60
2021/06/21 03:45:39;;;;;;;1.92;0.32;;;;;;;-148.58;100.00;55229.56;5035425;28;20108;-60
2021/06/21 03:48:05;;;;;;;0.73;0.20;;;;;;;-148.58;100.00;55229.56;5035485;28;20026;-61
2021/06/21 03:50:30;;;;;;;0.32;0.20;;;;;;;-148.58;100.00;55229.56;5035552;28;20040;-60
2021/06/21 03:52:56;;;;;;;0.40;0.20;;;;;;;-148.58;100.00;55229.56;5035321;28;20021;-60
2021/06/21 03:55:21;;;;;;;1.10;0.70;;;;;;;-148.58;100.00;55229.56;5035424;28;20045;-60
2021/06/21 03:57:49;;;;;;;0.65;0.17;;;;;;;-148.58;100.00;55229.56;5035148;28;20415;-60
2021/06/21 04:00:20;;;;;;;0.93;0.25;;;;;;;-148.58;100.00;55229.56;5035232;28;20025;-60
2021/06/21 04:02:47;;;;;;;0.68;0.30;;;;;;;-148.58;100.00;55229.56;5035009;28;20112;-60
2021/06/21 04:05:13;;;;;;;0.47;0.30;;;;;;;-148.58;100.00;55229.56;5035207;28;20040;-60
2021/06/21 04:07:39;;;;;;;0.28;0.28;;;;;;;-148.58;100.00;55229.56;5035058;28;20029;-61
2021/06/21 04:10:06;;;;;;;0.10;0.10;;;;;;;-148.58;100.00;55229.56;5035100;28;20128;-60
2021/06/21 04:12:31;;;;;;;0.47;0.10;;;;;;;-148.58;100.00;55229.56;5035136;28;20135;-60
2021/06/21 04:14:57;;;;;;;0.95;0.20;;;;;;;-148.58;100.00;55229.56;5035002;28;20432;-60
2021/06/21 04:17:22;;;;;;;0.25;0.10;;;;;;;-148.58;100.00;55229.56;5035036;28;20040;-59
2021/06/21 04:19:48;;;;;;;0.20;0.20;;;;;;;-148.58;100.00;55229.56;5034782;28;20044;-59
2021/06/21 04:22:13;;;;;;;1.08;0.40;;;;;;;-148.58;100.00;55229.56;5034913;28;20465;-60
2021/06/21 04:24:38;;;;;;;0.30;0.17;;;;;;;-148.58;100.00;55229.56;5033691;28;20080;-60
2021/06/21 04:27:04;;;;;;;0.10;0.10;;;;;;;-148.58;100.00;55229.56;5035975;28;20026;-60
2021/06/21 04:29:30;;;;;;;0.38;0.28;;;;;;;-148.58;100.00;55229.56;5033142;28;20025;-59
2021/06/21 04:31:55;;;;;;;1.30;0.68;;;;;;;-148.58;100.00;55229.56;5034542;28;20029;-60
2021/06/21 04:34:20;;;;;;;1.20;0.20;;;;;;;-148.58;100.00;55229.56;5034729;28;20021;-60
2021/06/21 04:36:46;;;;;;;0.88;0.13;;;;;;;-148.58;100.00;55229.56;5034308;28;20044;-59
2021/06/21 04:39:11;;;;;;;0.50;0.20;;;;;;;-148.58;100.00;55229.56;5034301;28;20029;-59
2021/06/21 04:41:36;;;;;;;0.20;0.20;;;;;;;-148.58;100.00;55229.56;5034536;28;20484;-60
2021/06/21 04:44:02;;;;;;;0.60;0.20;;;;;;;-148.58;100.00;55229.56;5034344;28;20017;-60
2021/06/21 04:46:29;;;;;;;0.10;0.10;;;;;;;-148.58;100.00;55229.56;5034506;28;20021;-59
2021/06/21 04:48:56;;;;;;;1.38;0.17;;;;;;;-148.58;100.00;55229.56;5034174;28;20025;-59
2021/06/21 04:51:22;;;;;;;0.20;0.20;;;;;;;-148.58;100.00;55229.56;5034693;28;20084;-60
2021/06/21 04:53:47;;;;;;;0.30;0.10;;;;;;;-148.58;100.00;55229.56;5031916;28;20029;-60
2021/06/21 04:56:14;;;;;;;0.30;0.20;;;;;;;-148.58;100.00;55229.56;5034056;28;20384;-60
2021/06/21 04:58:39;;;;;;;0.50;0.20;;;;;;;-148.58;100.00;55229.56;5034275;28;20032;-60
2021/06/21 05:01:06;;;;;;;0.38;0.28;;;;;;;-148.58;100.00;55229.56;5034054;28;20034;-60
2021/06/21 05:03:32;;;;;;;1.13;0.20;;;;;;;-148.58;100.00;55229.56;5034091;28;20080;-60
2021/06/21 05:05:57;;;;;;;0.95;0.10;;;;;;;-148.58;100.00;55229.56;5033757;28;20049;-60
2021/06/21 05:08:23;;;;;;;0.47;0.17;;;;;;;-148.58;100.00;55229.56;5034057;28;20029;-60
2021/06/21 05:10:48;;;;;;;0.32;0.17;;;;;;;-148.58;100.00;55229.56;5033836;28;20473;-59
2021/06/21 05:13:13;;;;;;;0.32;0.20;;;;;;;-148.58;100.00;55229.56;5033948;28;20037;-59
2021/06/21 05:15:39;;;;;;;0.45;0.17;;;;;;;-148.58;100.00;55229.56;5033893;28;20021;-60
2021/06/21 05:18:04;;;;;;;0.55;0.25;;;;;;;-148.58;100.00;55229.56;5033709;28;20055;-59
2021/06/21 05:20:30;;;;;;;0.25;0.10;;;;;;;-148.58;100.00;55229.56;5033948;28;20407;-60
2021/06/21 05:22:55;;;;;;;0.17;0.10;;;;;;;-148.58;100.00;55229.56;5032473;28;20014;-59
2021/06/21 05:25:21;;;;;;;0.63;0.10;;;;;;;-148.58;100.00;55229.56;5032896;28;20160;-59
2021/06/21 05:27:46;;;;;;;0.88;0.32;;;;;;;-148.58;100.00;55229.56;5033331;28;20028;-59
2021/06/21 05:30:12;;;;;;;0.55;0.20;;;;;;;-148.58;100.00;55229.56;5033364;28;20460;-60
2021/06/21 05:32:37;;;;;;;1.45;0.20;;;;;;;-148.58;100.00;55229.56;5032373;28;20365;-59
2021/06/21 05:35:06;;;;;;;0.40;0.15;;;;;;;-148.58;100.00;55229.56;5033335;28;20029;-60
2021/06/21 05:37:31;;;;;;;0.30;0.22;;;;;;;-148.58;100.00;55229.56;5033586;28;20104;-60
2021/06/21 05:39:57;;;;;;;0.70;0.20;;;;;;;-148.58;100.00;55229.56;5032990;28;20112;-59
2021/06/21 05:42:22;;;;;;;0.60;0.30;;;;;;;-148.58;100.00;55229.56;5031693;28;20025;-59
2021/06/21 05:44:48;;;;;;;0.88;0.30;;;;;;;-148.58;100.00;55229.56;5031568;28;20021;-61
2021/06/21 05:47:14;;;;;;;1.10;0.50;;;;;;;-148.58;100.00;55229.56;5034224;28;20057;-60
2021/06/21 05:49:40;;;;;;;2.30;0.68;;;;;;;-148.58;100.00;55229.56;5031125;28;20036;-60
2021/06/21 05:52:05;;;;;;;2.13;0.70;;;;;;;-148.58;100.00;55229.56;5032475;28;20021;-59
2021/06/21 05:54:31;;;;;;;1.83;1.00;;;;;;;-148.58;100.00;55229.56;5032687;28;20096;-59
2021/06/21 05:56:56;;;;;;;2.50;1.40;;;;;;;-148.58;100.00;55229.56;5032778;28;20017;-60
2021/06/21 05:59:21;;;;;;;4.45;1.50;;;;;;;-148.58;100.00;55229.56;5033211;28;20021;-61
2021/06/21 06:01:47;;;;;;;4.18;1.77;;;;;;;-148.58;100.00;55229.56;5032727;28;20416;-59
2021/06/21 06:04:12;;;;;;;3.42;2.00;;;;;;;-148.58;100.00;55229.56;5032319;28;20420;-60
2021/06/21 06:06:37;;;;;;;4.43;2.30;;;;;;;-148.58;100.00;55229.56;5030090;28;20068;-60
2021/06/21 06:09:03;;;;;;;5.63;2.72;;;;;;;-148.58;100.00;55229.56;5032015;28;20075;-60
2021/06/21 06:11:28;;;;;;;5.15;2.83;;;;;;;-148.58;100.00;55229.56;5032971;28;20021;-60
2021/06/21 06:13:54;;;;;;;6.35;3.33;;;;;;;-148.58;100.00;55229.56;5031904;28;20342;-60
2021/06/21 06:16:19;;;;;;;8.20;3.92;;;;;;;-148.58;100.00;55229.56;5030783;28;20040;-60
2021/06/21 06:18:44;;;;;;;7.93;3.60;;;;;;;-148.58;100.00;55229.56;5031182;28;20033;-56
2021/06/21 06:21:12;;;;;;;7.03;3.67;;;;;;;-148.58;100.00;55229.56;5031593;28;20032;-56
2021/06/21 06:23:39;;;;;;;10.15;4.00;;;;;;;-148.58;100.00;55229.56;5031570;28;20476;-55
2021/06/21 06:26:04;;;;;;;7.57;3.63;;;;;;;-148.58;100.00;55229.56;5031220;28;20088;-56
2021/06/21 06:28:30;;;;;;;8.98;4.15;;;;;;;-148.58;100.00;55229.56;5028682;28;20116;-55
2021/06/21 06:30:55;;;;;;;5.90;3.72;;;;;;;-148.58;100.00;55229.56;5027042;28;20036;-56
2021/06/21 06:33:20;;;;;;;7.65;3.80;;;;;;;-148.58;100.00;55229.56;5033002;28;20029;-60
2021/06/21 06:35:46;;;;;;;8.02;4.18;;;;;;;-148.58;100.00;55229.56;5029402;28;20108;-55
2021/06/21 06:38:12;;;;;;;7.20;3.50;;;;;;;-148.58;100.00;55229.56;5037007;28;20037;-55
2021/06/21 06:40:37;;;;;;;8.95;4.32;;;;;;;-148.58;100.00;55229.56;5032574;28;20033;-55
2021/06/21 06:43:03;;;;;;;6.55;3.70;;;;;;;-148.58;100.00;55229.56;5032677;28;20410;-60
2021/06/21 06:45:29;;;;;;;8.80;4.60;;;;;;;-148.58;100.00;55229.56;5031975;28;20029;-59
2021/06/21 06:47:54;;;;;;;9.68;4.68;;;;;;;-148.58;100.00;55229.56;5026321;28;20026;-59
2021/06/21 06:50:20;;;;;;;7.97;3.80;;;;;;;-148.58;100.00;55229.56;5024391;28;20028;-59
2021/06/21 06:52:47;;;;;;;9.30;4.88;;;;;;;-148.58;100.00;55229.56;5031064;28;20071;-58
2021/06/21 06:57:57;;;;;;;9.15;4.78;;;;;;;-148.58;100.00;55229.56;5029509;28;20446;-59
2021/06/21 07:00:22;;;;;;;9.65;4.47;;;;;;;-148.58;100.00;55229.56;5032576;28;20030;-58
2021/06/21 07:02:48;;;;;;;9.57;4.90;;;;;;;-148.58;100.00;55229.56;5034083;28;20033;-60
2021/06/21 07:05:14;;;;;;;9.00;4.93;;;;;;;-148.58;100.00;55229.56;5032890;28;20104;-60
2021/06/21 07:07:39;;;;;;;8.45;4.60;;;;;;;-148.58;100.00;55229.56;5036732;28;20065;-59
2021/06/21 07:10:05;;;;;;;10.23;5.43;;;;;;;-148.58;100.00;55229.56;5036430;28;20480;-59
2021/06/21 07:12:31;;;;;;;8.25;4.40;;;;;;;-148.58;100.00;55229.56;5034798;28;20021;-59
2021/06/21 07:14:56;;;;;;;9.18;5.00;;;;;;;-148.58;100.00;55229.56;5032979;28;20055;-58
2021/06/21 07:17:22;;;;;;;8.95;4.50;;;;;;;-148.58;100.00;55229.56;5035910;28;20104;-58
2021/06/21 07:19:47;;;;;;;7.88;4.10;;;;;;;-148.58;100.00;55229.56;5035525;28;20456;-60
2021/06/21 07:22:12;;;;;;;7.72;3.70;;;;;;;-148.58;100.00;55229.56;5033935;28;20459;-57
2021/06/21 07:24:38;;;;;;;5.82;2.92;;;;;;;-148.58;100.00;55229.56;5033044;28;20390;-55
2021/06/21 07:27:04;;;;;;;6.90;3.70;;;;;;;-148.58;100.00;55229.56;5035968;28;20033;-57
2021/06/21 07:29:30;;;;;;;6.43;3.58;;;;;;;-148.58;100.00;55229.56;5037378;28;20036;-59
2021/06/21 07:31:55;;;;;;;4.82;2.85;;;;;;;-148.58;100.00;55229.56;5035809;28;20029;-60
2021/06/21 07:34:20;;;;;;;4.63;2.40;;;;;;;-148.58;100.00;55229.56;5035537;28;20021;-58
2021/06/21 07:36:46;;;;;;;4.68;2.55;;;;;;;-148.58;100.00;55229.56;5035257;28;20060;-59
2021/06/21 07:39:12;;;;;;;5.32;2.63;;;;;;;-148.58;100.00;55229.56;5034894;28;20026;-58
2021/06/21 07:41:38;;;;;;;5.13;1.98;;;;;;;-148.58;100.00;55229.56;5039859;28;20083;-58
2021/06/21 07:44:03;;;;;;;4.93;2.30;;;;;;;-148.58;100.00;55229.56;5036674;28;20072;-59
2021/06/21 07:46:29;;;;;;;2.38;2.10;;;;;;;-148.58;100.00;55229.56;5026300;28;20040;-59
2021/06/21 07:48:55;;;;;;;5.35;1.95;;;;;;;-148.58;100.00;55229.56;5036173;28;20432;-59
2021/06/21 07:51:22;;;;;;;3.90;1.85;;;;;;;-148.58;100.00;55229.56;5036284;28;20468;-58
2021/06/21 07:53:51;;;;;;;2.30;1.60;;;;;;;-148.58;100.00;55229.56;5035914;28;20036;-59
2021/06/21 07:56:17;;;;;;;3.47;1.25;;;;;;;-148.58;100.00;55229.56;5036035;28;20033;-58
2021/06/21 07:58:42;;;;;;;2.38;1.48;;;;;;;-148.58;100.00;55229.56;5025803;28;20503;-59
2021/06/21 08:01:11;;;;;;;2.67;1.63;;;;;;;-148.58;100.00;55229.56;5019753;28;20056;-59
2021/06/21 08:03:36;;;;;;;2.45;1.20;;;;;;;-148.58;100.00;55229.56;5033979;28;20045;-58
2021/06/21 08:06:03;;;;;;;1.52;0.90;;;;;;;-148.58;100.00;55229.56;5032975;28;20036;-58
2021/06/21 08:08:30;;;;;;;1.48;1.10;;;;;;;-148.58;100.00;55229.56;5035429;28;20068;-59
2021/06/21 08:10:56;;;;;;;1.35;0.82;;;;;;;-148.58;100.00;55229.56;5035034;28;20399;-58
2021/06/21 08:13:22;;;;;;;2.28;0.80;;;;;;;-148.58;100.00;55229.56;5034976;28;20453;-59
2021/06/21 08:15:48;;;;;;;2.50;1.17;;;;;;;-148.58;100.00;55229.56;5034844;28;20021;-58
2021/06/21 08:18:14;;;;;;;1.40;0.65;;;;;;;-148.58;100.00;55229.56;5029458;28;20163;-58
2021/06/21 08:20:43;;;;;;;1.13;0.55;;;;;;;-148.58;100.00;55229.56;5029065;28;20482;-58
2021/06/21 08:23:13;;;;;;;1.00;0.63;;;;;;;-148.58;100.00;55229.56;5030088;28;20056;-60
2021/06/21 08:25:39;;;;;;;1.30;0.68;;;;;;;-148.58;100.00;55229.56;5030822;28;20018;-60
2021/06/21 08:28:05;;;;;;;0.70;0.60;;;;;;;-148.58;100.00;55229.56;5024974;28;20516;-59
2021/06/21 08:30:31;;;;;;;0.73;0.25;;;;;;;-148.58;100.00;55229.56;5031801;28;20060;-59
2021/06/21 08:32:57;;;;;;;1.45;0.52;;;;;;;-148.58;100.00;55229.56;5032102;28;20488;-60
2021/06/21 08:35:22;;;;;;;0.80;0.40;;;;;;;-148.58;100.00;55229.56;5031749;28;20037;-60
2021/06/21 08:37:48;;;;;;;0.60;0.50;;;;;;;-148.58;100.00;55229.56;5032657;28;20065;-60
2021/06/21 08:40:14;;;;;;;0.68;0.30;;;;;;;-148.58;100.00;55229.56;5027024;28;20480;-61
2021/06/21 08:42:39;;;;;;;0.55;0.40;;;;;;;-148.58;100.00;55229.56;5031748;28;20025;-60
2021/06/21 08:45:06;;;;;;;0.85;0.45;;;;;;;-148.58;100.00;55229.56;5032193;28;20468;-59
2021/06/21 08:47:33;;;;;;;0.50;0.38;;;;;;;-148.58;100.00;55229.56;5032103;28;20038;-60
2021/06/21 08:50:00;;;;;;;0.73;0.50;;;;;;;-148.58;100.00;55229.56;5032944;28;20026;-60
2021/06/21 08:52:26;;;;;;;1.50;0.35;;;;;;;-148.58;100.00;55229.56;5025554;28;20029;-60
2021/06/21 08:55:02;;;;;;;0.50;0.30;;;;;;;-148.58;100.00;55229.56;5031792;28;20025;-60
2021/06/21 08:57:28;;;;;;;0.47;0.30;;;;;;;-148.58;100.00;55229.56;5024889;28;20033;-60
2021/06/21 08:59:53;;;;;;;0.30;0.22;;;;;;;-148.58;100.00;55229.56;5033047;28;20164;-59
2021/06/21 09:02:19;;;;;;;0.52;0.40;;;;;;;-148.58;100.00;55229.56;5023552;28;20045;-60
2021/06/21 09:04:45;;;;;;;0.45;0.15;;;;;;;-148.58;100.00;55229.56;5037302;28;20037;-58
2021/06/21 09:07:24;;;;;;;0.80;0.20;;;;;;;-148.58;100.00;55229.56;5030291;28;20021;-58
2021/06/21 09:09:51;;;;;;;1.45;0.45;;;;;;;-148.58;100.00;55229.56;5029744;28;20372;-59
2021/06/21 09:12:31;;;;;;;0.73;0.20;;;;;;;-148.58;100.00;55229.56;5030128;28;20029;-57
2021/06/21 09:14:59;;;;;;;0.20;0.20;;;;;;;-148.58;100.00;55229.56;5032085;28;20014;-59
2021/06/21 09:17:27;;;;;;;2.15;0.20;;;;;;;-148.58;100.00;55229.56;5032867;28;20033;-59
2021/06/21 09:19:55;;;;;;;0.20;0.20;;;;;;;-148.58;100.00;55229.56;5014663;28;20106;-59
2021/06/21 09:22:33;;;;;;;2.50;0.35;;;;;;;-148.58;100.00;55229.56;5018148;28;20065;-58
2021/06/21 09:25:03;;;;;;;0.68;0.13;;;;;;;-148.58;100.00;55229.56;5015514;28;20040;-58
2021/06/21 09:27:28;;;;;;;0.75;0.22;;;;;;;-148.58;100.00;55229.56;5024708;28;20049;-57
2021/06/21 09:29:53;;;;;;;1.75;0.43;;;;;;;-148.58;100.00;55229.56;5027760;28;20045;-58
2021/06/21 09:32:20;;;;;;;0.75;0.25;;;;;;;-148.58;100.00;55229.56;5023769;28;20082;-58
2021/06/21 09:34:46;;;;;;;1.85;0.28;;;;;;;-148.58;100.00;55229.56;5027716;28;20048;-59
2021/06/21 09:37:17;;;;;;;2.30;0.20;;;;;;;-148.58;100.00;55229.56;5028944;28;20026;-58
2021/06/21 09:39:46;;;;;;;1.50;0.17;;;;;;;-148.58;100.00;55229.56;5026574;28;20040;-59
2021/06/21 09:42:15;;;;;;;0.90;0.30;;;;;;;-148.58;100.00;55229.56;5028960;28;20108;-59
2021/06/21 09:44:47;;;;;;;1.45;0.30;;;;;;;-148.58;100.00;55229.56;5030577;28;20037;-60
2021/06/21 09:47:16;;;;;;;2.47;0.20;;;;;;;-148.58;100.00;55229.56;5031928;28;20032;-59
2021/06/21 09:50:01;;;;;;;1.63;0.40;;;;;;;-148.58;100.00;55229.56;5031341;28;20537;-58
2021/06/21 09:52:39;;;;;;;0.30;0.20;;;;;;;-148.58;100.00;55229.56;5019249;28;20468;-58
2021/06/21 09:55:21;;;;;;;0.30;0.20;;;;;;;-148.58;100.00;55229.56;5018509;28;20086;-58
2021/06/21 09:57:58;;;;;;;0.65;0.13;;;;;;;-148.58;100.00;55229.56;5012502;28;20014;-60
2021/06/21 10:00:23;;;;;;;0.68;0.10;;;;;;;-148.58;100.00;55229.56;5025466;28;20033;-59
2021/06/21 10:02:48;;;;;;;0.82;0.28;;;;;;;-148.58;100.00;55229.56;5029108;28;20041;-60
2021/06/21 10:05:20;;;;;;;1.02;0.20;;;;;;;-148.58;100.00;55229.56;5031856;28;20037;-60
2021/06/21 10:07:46;;;;;;;0.68;0.20;;;;;;;-148.58;100.00;55229.56;5024145;28;20033;-59
2021/06/21 10:10:16;;;;;;;0.50;0.17;;;;;;;-148.58;100.00;55229.56;5030005;28;20104;-59
2021/06/21 10:12:41;;;;;;;0.65;0.13;;;;;;;-148.58;100.00;55229.56;5029594;28;20040;-59
2021/06/21 10:15:09;;;;;;;0.75;0.10;;;;;;;-148.58;100.00;55229.56;5030036;28;20025;-60
2021/06/21 10:17:35;;;;;;;1.48;0.10;;;;;;;-148.58;100.00;55229.56;5029031;28;20025;-59
2021/06/21 10:20:00;;;;;;;3.03;0.90;;;;;;;-148.58;100.00;55229.56;5030405;28;20025;-60
2021/06/21 10:22:27;;;;;;;0.32;0.17;;;;;;;-148.58;100.00;55229.56;5030287;28;20025;-60
2021/06/21 10:24:56;;;;;;;1.65;0.10;;;;;;;-148.58;100.00;55229.56;5030103;28;20428;-61
2021/06/21 10:27:23;;;;;;;0.88;0.25;;;;;;;-148.58;100.00;55229.56;5032350;28;20052;-61
2021/06/21 10:29:49;;;;;;;0.75;0.30;;;;;;;-148.58;100.00;55229.56;5032292;28;20032;-61
2021/06/21 10:32:16;;;;;;;0.65;0.20;;;;;;;-148.58;100.00;55229.56;5032902;28;20113;-60
2021/06/21 10:34:41;;;;;;;0.50;0.10;;;;;;;-148.58;100.00;55229.56;5031315;28;20017;-60
2021/06/21 10:37:22;;;;;;;0.32;0.10;;;;;;;-148.58;100.00;55229.56;5032667;28;20032;-61
2021/06/21 10:39:58;;;;;;;0.38;0.10;;;;;;;-148.58;100.00;55229.56;5033166;28;20029;-60
2021/06/21 10:42:26;;;;;;;0.47;0.20;;;;;;;-148.58;100.00;55229.56;5030643;28;20484;-60
2021/06/21 10:44:59;;;;;;;0.63;0.17;;;;;;;-148.58;100.00;55229.56;5014283;28;20438;-60
2021/06/21 10:47:34;;;;;;;2.08;0.50;;;;;;;-148.58;100.00;55229.56;5032220;28;20477;-60
2021/06/21 10:50:21;;;;;;;0.90;0.10;;;;;;;-148.58;100.00;55229.56;5032211;28;20029;-61
2021/06/21 10:52:49;;;;;;;0.15;0.13;;;;;;;-148.58;100.00;55229.56;5031968;28;20045;-61
2021/06/21 10:55:20;;;;;;;0.10;0.10;;;;;;;-148.58;100.00;55229.56;5031711;28;20049;-61
2021/06/21 10:57:46;;;;;;;0.77;0.20;;;;;;;-148.58;100.00;55229.56;5030097;28;20025;-60
2021/06/21 11:00:16;;;;;;;0.30;0.20;;;;;;;-148.58;100.00;55229.56;5030065;28;20041;-60
2021/06/21 11:02:42;;;;;;;1.67;0.20;;;;;;;-148.58;100.00;55229.56;5031889;28;20384;-60
2021/06/21 11:05:09;;;;;;;0.52;0.10;;;;;;;-148.58;100.00;55229.56;5031850;28;20026;-60
2021/06/21 11:07:35;;;;;;;0.32;0.10;;;;;;;-148.58;100.00;55229.56;5030931;28;20071;-60
2021/06/21 11:10:02;;;;;;;0.52;0.20;;;;;;;-148.58;100.00;55229.56;5030007;28;20037;-60
2021/06/21 11:12:30;;;;;;;0.30;0.10;;;;;;;-148.58;100.00;55229.56;5027639;28;20033;-60
2021/06/21 11:17:32;;;;;;;1.33;0.20;;;;;;;-148.58;100.00;55229.56;5029951;28;20034;-60